sensor_id;sensor_type;location;lat;lon;timestamp;pressure;altitude;pressure_sealevel;temperature;humidity
23433;BME280;41331;45.412;10.992;2023-07-13T00:02:01;100807.34;;;24.62;79.09
23433;BME280;41331;45.412;10.992;2023-07-13T00:04:29;100824.66;;;24.42;80.63
23433;BME280;41331;45.412;10.992;2023-07-13T00:07:00;100813.22;;;24.29;81.63
23433;BME280;41331;45.412;10.992;2023-07-13T00:09:27;100769.16;;;24.28;82.46
23433;BME280;41331;45.412;10.992;2023-07-13T00:11:56;100729.47;;;24.24;81.54
23433;BME280;41331;45.412;10.992;2023-07-13T00:14:25;100666.72;;;24.23;82.11
23433;BME280;41331;45.412;10.992;2023-07-13T00:16:53;100655.91;;;24.28;81.00
23433;BME280;41331;45.412;10.992;2023-07-13T00:19:21;100620.41;;;24.40;79.06
23433;BME280;41331;45.412;10.992;2023-07-13T00:21:48;100600.34;;;24.25;77.03
23433;BME280;41331;45.412;10.992;2023-07-13T00:24:18;100582.09;;;24.78;72.98
23433;BME280;41331;45.412;10.992;2023-07-13T00:26:51;100566.56;;;24.53;71.30
23433;BME280;41331;45.412;10.992;2023-07-13T00:29:19;100555.19;;;24.44;71.15
23433;BME280;41331;45.412;10.992;2023-07-13T00:31:48;100547.63;;;24.45;69.95
23433;BME280;41331;45.412;10.992;2023-07-13T00:34:16;100542.84;;;23.88;69.14
23433;BME280;41331;45.412;10.992;2023-07-13T00:36:44;100531.06;;;24.07;67.25
23433;BME280;41331;45.412;10.992;2023-07-13T00:39:12;100511.25;;;24.05;68.08
23433;BME280;41331;45.412;10.992;2023-07-13T00:41:40;100491.31;;;23.80;67.41
23433;BME280;41331;45.412;10.992;2023-07-13T00:44:13;100488.00;;;23.92;67.66
23433;BME280;41331;45.412;10.992;2023-07-13T00:46:41;100481.63;;;23.95;67.51
23433;BME280;41331;45.412;10.992;2023-07-13T00:49:12;100484.78;;;23.93;66.27
23433;BME280;41331;45.412;10.992;2023-07-13T00:51:55;100499.78;;;23.99;65.28
23433;BME280;41331;45.412;10.992;2023-07-13T00:54:28;100504.38;;;24.13;64.23
23433;BME280;41331;45.412;10.992;2023-07-13T00:57:00;100510.09;;;24.02;64.81
23433;BME280;41331;45.412;10.992;2023-07-13T00:59:29;100518.00;;;24.04;65.39
23433;BME280;41331;45.412;10.992;2023-07-13T01:01:57;100512.41;;;24.08;64.86
23433;BME280;41331;45.412;10.992;2023-07-13T01:04:25;100507.63;;;24.08;65.25
23433;BME280;41331;45.412;10.992;2023-07-13T01:06:55;100503.00;;;23.98;67.10
23433;BME280;41331;45.412;10.992;2023-07-13T01:09:25;100518.56;;;23.92;66.16
23433;BME280;41331;45.412;10.992;2023-07-13T01:11:53;100521.50;;;24.08;66.14
23433;BME280;41331;45.412;10.992;2023-07-13T01:14:21;100525.47;;;24.11;66.14
23433;BME280;41331;45.412;10.992;2023-07-13T01:16:49;100538.50;;;23.87;68.54
23433;BME280;41331;45.412;10.992;2023-07-13T01:22:16;100558.22;;;23.96;68.63
23433;BME280;41331;45.412;10.992;2023-07-13T01:24:46;100564.09;;;23.71;69.50
23433;BME280;41331;45.412;10.992;2023-07-13T01:27:19;100562.47;;;23.73;70.03
23433;BME280;41331;45.412;10.992;2023-07-13T01:29:47;100569.34;;;23.96;68.85
23433;BME280;41331;45.412;10.992;2023-07-13T01:32:23;100573.38;;;23.91;67.67
23433;BME280;41331;45.412;10.992;2023-07-13T01:34:55;100585.81;;;23.80;68.95
23433;BME280;41331;45.412;10.992;2023-07-13T01:37:24;100583.28;;;23.92;68.08
23433;BME280;41331;45.412;10.992;2023-07-13T01:39:52;100589.09;;;24.05;68.17
23433;BME280;41331;45.412;10.992;2023-07-13T01:42:20;100580.59;;;24.16;67.66
23433;BME280;41331;45.412;10.992;2023-07-13T01:44:48;100579.22;;;24.31;67.18
23433;BME280;41331;45.412;10.992;2023-07-13T01:47:15;100583.25;;;24.26;68.16
23433;BME280;41331;45.412;10.992;2023-07-13T01:49:43;100578.22;;;24.14;69.22
23433;BME280;41331;45.412;10.992;2023-07-13T01:52:13;100585.31;;;24.19;68.28
23433;BME280;41331;45.412;10.992;2023-07-13T01:54:41;100585.94;;;24.03;70.16
23433;BME280;41331;45.412;10.992;2023-07-13T01:57:09;100588.63;;;24.10;70.64
23433;BME280;41331;45.412;10.992;2023-07-13T01:59:36;100589.28;;;24.21;70.10
23433;BME280;41331;45.412;10.992;2023-07-13T02:02:06;100594.31;;;23.99;70.95
23433;BME280;41331;45.412;10.992;2023-07-13T02:04:34;100593.66;;;23.88;73.21
23433;BME280;41331;45.412;10.992;2023-07-13T02:07:01;100599.34;;;23.77;75.16
23433;BME280;41331;45.412;10.992;2023-07-13T02:09:29;100603.81;;;24.02;74.56
23433;BME280;41331;45.412;10.992;2023-07-13T02:11:56;100601.94;;;23.92;74.69
23433;BME280;41331;45.412;10.992;2023-07-13T02:14:30;100594.41;;;23.92;75.76
23433;BME280;41331;45.412;10.992;2023-07-13T02:16:57;100586.16;;;23.85;76.52
23433;BME280;41331;45.412;10.992;2023-07-13T02:19:25;100588.22;;;23.77;77.41
23433;BME280;41331;45.412;10.992;2023-07-13T02:21:52;100578.91;;;23.95;76.42
23433;BME280;41331;45.412;10.992;2023-07-13T02:24:19;100582.19;;;23.86;78.55
23433;BME280;41331;45.412;10.992;2023-07-13T02:26:48;100585.81;;;23.80;78.42
23433;BME280;41331;45.412;10.992;2023-07-13T02:29:15;100601.63;;;23.86;78.48
23433;BME280;41331;45.412;10.992;2023-07-13T02:31:45;100612.00;;;23.82;77.78
23433;BME280;41331;45.412;10.992;2023-07-13T02:34:12;100603.69;;;23.78;77.40
23433;BME280;41331;45.412;10.992;2023-07-13T02:36:40;100593.97;;;23.94;77.36
23433;BME280;41331;45.412;10.992;2023-07-13T02:39:08;100591.88;;;23.71;79.30
23433;BME280;41331;45.412;10.992;2023-07-13T02:41:36;100604.47;;;23.79;79.67
23433;BME280;41331;45.412;10.992;2023-07-13T02:44:03;100608.47;;;23.78;80.04
23433;BME280;41331;45.412;10.992;2023-07-13T02:46:32;100597.34;;;23.78;80.91
23433;BME280;41331;45.412;10.992;2023-07-13T02:49:00;100609.09;;;23.55;82.51
23433;BME280;41331;45.412;10.992;2023-07-13T02:51:27;100600.06;;;23.44;82.15
23433;BME280;41331;45.412;10.992;2023-07-13T02:53:55;100606.00;;;23.46;81.55
23433;BME280;41331;45.412;10.992;2023-07-13T02:56:25;100619.91;;;23.42;81.80
23433;BME280;41331;45.412;10.992;2023-07-13T02:58:53;100614.81;;;23.37;82.26
23433;BME280;41331;45.412;10.992;2023-07-13T03:01:21;100628.25;;;23.42;82.41
23433;BME280;41331;45.412;10.992;2023-07-13T03:03:50;100624.84;;;23.24;83.12
23433;BME280;41331;45.412;10.992;2023-07-13T03:06:19;100626.38;;;23.32;81.42
23433;BME280;41331;45.412;10.992;2023-07-13T03:08:51;100625.84;;;23.44;81.28
23433;BME280;41331;45.412;10.992;2023-07-13T03:11:19;100621.09;;;23.45;79.76
23433;BME280;41331;45.412;10.992;2023-07-13T03:13:53;100643.72;;;23.43;80.75
23433;BME280;41331;45.412;10.992;2023-07-13T03:16:21;100638.66;;;23.35;80.08
23433;BME280;41331;45.412;10.992;2023-07-13T03:18:51;100653.28;;;23.39;81.03
23433;BME280;41331;45.412;10.992;2023-07-13T03:21:19;100657.25;;;23.38;78.04
23433;BME280;41331;45.412;10.992;2023-07-13T03:23:47;100658.16;;;23.69;76.49
23433;BME280;41331;45.412;10.992;2023-07-13T03:26:18;100654.25;;;23.63;77.42
23433;BME280;41331;45.412;10.992;2023-07-13T03:28:46;100666.19;;;23.60;78.04
23433;BME280;41331;45.412;10.992;2023-07-13T03:31:21;100669.88;;;23.49;78.86
23433;BME280;41331;45.412;10.992;2023-07-13T03:33:49;100668.91;;;23.70;77.02
23433;BME280;41331;45.412;10.992;2023-07-13T03:36:19;100671.69;;;23.67;77.11
23433;BME280;41331;45.412;10.992;2023-07-13T03:38:50;100676.38;;;23.77;75.73
23433;BME280;41331;45.412;10.992;2023-07-13T03:41:22;100685.59;;;23.67;78.19
23433;BME280;41331;45.412;10.992;2023-07-13T03:43:52;100691.56;;;23.65;77.47
23433;BME280;41331;45.412;10.992;2023-07-13T03:46:21;100685.47;;;23.81;76.73
23433;BME280;41331;45.412;10.992;2023-07-13T03:48:49;100685.25;;;23.58;77.19
23433;BME280;41331;45.412;10.992;2023-07-13T03:51:18;100685.97;;;23.69;77.26
23433;BME280;41331;45.412;10.992;2023-07-13T03:53:46;100694.25;;;23.76;77.68
23433;BME280;41331;45.412;10.992;2023-07-13T03:56:17;100698.59;;;23.77;78.84
23433;BME280;41331;45.412;10.992;2023-07-13T03:58:47;100696.69;;;23.70;78.89
23433;BME280;41331;45.412;10.992;2023-07-13T04:01:18;100688.72;;;23.72;79.53
23433;BME280;41331;45.412;10.992;2023-07-13T04:03:46;100689.06;;;23.78;78.13
23433;BME280;41331;45.412;10.992;2023-07-13T04:06:20;100699.06;;;23.68;76.75
23433;BME280;41331;45.412;10.992;2023-07-13T04:08:51;100690.63;;;23.79;77.53
23433;BME280;41331;45.412;10.992;2023-07-13T04:11:19;100686.56;;;23.87;76.67
23433;BME280;41331;45.412;10.992;2023-07-13T04:13:48;100689.50;;;23.73;77.11
23433;BME280;41331;45.412;10.992;2023-07-13T04:16:17;100692.09;;;23.91;76.84
23433;BME280;41331;45.412;10.992;2023-07-13T04:18:46;100693.94;;;23.63;78.12
23433;BME280;41331;45.412;10.992;2023-07-13T04:21:14;100693.47;;;23.72;77.88
23433;BME280;41331;45.412;10.992;2023-07-13T04:23:42;100696.50;;;23.88;78.25
23433;BME280;41331;45.412;10.992;2023-07-13T04:26:10;100702.34;;;23.97;76.76
23433;BME280;41331;45.412;10.992;2023-07-13T04:28:38;100696.81;;;23.94;76.43
23433;BME280;41331;45.412;10.992;2023-07-13T04:31:05;100693.31;;;23.90;76.21
23433;BME280;41331;45.412;10.992;2023-07-13T04:33:33;100698.44;;;23.91;77.13
23433;BME280;41331;45.412;10.992;2023-07-13T04:36:01;100707.66;;;24.19;76.72
23433;BME280;41331;45.412;10.992;2023-07-13T04:38:30;100707.06;;;24.35;75.79
23433;BME280;41331;45.412;10.992;2023-07-13T04:41:17;100711.06;;;24.37;74.55
23433;BME280;41331;45.412;10.992;2023-07-13T04:43:44;100708.72;;;24.36;75.58
23433;BME280;41331;45.412;10.992;2023-07-13T04:46:13;100707.72;;;24.49;74.77
23433;BME280;41331;45.412;10.992;2023-07-13T04:48:43;100715.06;;;24.67;73.87
23433;BME280;41331;45.412;10.992;2023-07-13T04:51:10;100728.28;;;24.59;75.78
23433;BME280;41331;45.412;10.992;2023-07-13T04:53:38;100727.19;;;24.49;75.40
23433;BME280;41331;45.412;10.992;2023-07-13T04:56:05;100732.25;;;24.24;75.95
23433;BME280;41331;45.412;10.992;2023-07-13T04:58:33;100721.97;;;24.21;75.91
23433;BME280;41331;45.412;10.992;2023-07-13T05:01:03;100718.06;;;24.15;74.46
23433;BME280;41331;45.412;10.992;2023-07-13T05:03:31;100714.69;;;24.31;74.75
23433;BME280;41331;45.412;10.992;2023-07-13T05:06:02;100724.16;;;24.40;75.16
23433;BME280;41331;45.412;10.992;2023-07-13T05:08:30;100746.00;;;24.38;74.77
23433;BME280;41331;45.412;10.992;2023-07-13T05:10:59;100742.44;;;24.38;74.44
23433;BME280;41331;45.412;10.992;2023-07-13T05:13:27;100729.44;;;24.27;75.15
23433;BME280;41331;45.412;10.992;2023-07-13T05:15:59;100718.44;;;24.51;72.45
23433;BME280;41331;45.412;10.992;2023-07-13T05:18:27;100718.19;;;24.38;75.00
23433;BME280;41331;45.412;10.992;2023-07-13T05:21:03;100713.16;;;24.26;75.05
23433;BME280;41331;45.412;10.992;2023-07-13T05:23:32;100722.94;;;24.41;75.92
23433;BME280;41331;45.412;10.992;2023-07-13T05:26:00;100726.19;;;24.33;76.24
23433;BME280;41331;45.412;10.992;2023-07-13T05:28:31;100719.84;;;24.32;77.37
23433;BME280;41331;45.412;10.992;2023-07-13T05:30:58;100718.63;;;24.67;73.59
23433;BME280;41331;45.412;10.992;2023-07-13T05:33:26;100738.94;;;24.30;75.01
23433;BME280;41331;45.412;10.992;2023-07-13T05:35:54;100729.09;;;24.22;75.81
23433;BME280;41331;45.412;10.992;2023-07-13T05:38:22;100724.69;;;24.24;76.85
23433;BME280;41331;45.412;10.992;2023-07-13T05:40:50;100744.16;;;24.24;77.55
23433;BME280;41331;45.412;10.992;2023-07-13T05:43:18;100731.84;;;24.25;79.15
23433;BME280;41331;45.412;10.992;2023-07-13T05:45:45;100729.97;;;24.15;80.02
23433;BME280;41331;45.412;10.992;2023-07-13T05:48:12;100737.09;;;24.16;78.42
23433;BME280;41331;45.412;10.992;2023-07-13T05:50:40;100744.44;;;24.34;78.61
23433;BME280;41331;45.412;10.992;2023-07-13T05:53:08;100745.91;;;24.11;79.39
23433;BME280;41331;45.412;10.992;2023-07-13T05:55:35;100736.44;;;24.05;80.67
23433;BME280;41331;45.412;10.992;2023-07-13T05:58:03;100735.47;;;24.19;80.25
23433;BME280;41331;45.412;10.992;2023-07-13T06:00:30;100711.94;;;24.27;77.47
23433;BME280;41331;45.412;10.992;2023-07-13T06:02:58;100701.50;;;24.35;77.17
23433;BME280;41331;45.412;10.992;2023-07-13T06:05:26;100711.44;;;24.39;76.39
23433;BME280;41331;45.412;10.992;2023-07-13T06:07:56;100711.81;;;24.41;77.00
23433;BME280;41331;45.412;10.992;2023-07-13T06:10:23;100720.97;;;24.38;76.25
23433;BME280;41331;45.412;10.992;2023-07-13T06:12:51;100741.81;;;24.19;77.79
23433;BME280;41331;45.412;10.992;2023-07-13T06:15:18;100746.59;;;24.19;77.38
23433;BME280;41331;45.412;10.992;2023-07-13T06:17:46;100732.63;;;24.26;75.26
23433;BME280;41331;45.412;10.992;2023-07-13T06:20:13;100732.53;;;24.33;74.22
23433;BME280;41331;45.412;10.992;2023-07-13T06:22:42;100740.09;;;24.33;75.58
23433;BME280;41331;45.412;10.992;2023-07-13T06:25:10;100730.97;;;24.32;75.30
23433;BME280;41331;45.412;10.992;2023-07-13T06:27:37;100712.31;;;24.29;75.15
23433;BME280;41331;45.412;10.992;2023-07-13T06:30:05;100706.09;;;24.18;75.72
23433;BME280;41331;45.412;10.992;2023-07-13T06:32:32;100700.22;;;24.12;77.21
23433;BME280;41331;45.412;10.992;2023-07-13T06:35:00;100711.06;;;24.34;75.62
23433;BME280;41331;45.412;10.992;2023-07-13T06:37:27;100712.59;;;24.42;75.48
23433;BME280;41331;45.412;10.992;2023-07-13T06:39:55;100703.50;;;24.38;75.33
23433;BME280;41331;45.412;10.992;2023-07-13T06:42:23;100698.72;;;24.35;76.50
23433;BME280;41331;45.412;10.992;2023-07-13T06:44:50;100695.88;;;24.45;75.31
23433;BME280;41331;45.412;10.992;2023-07-13T06:47:17;100712.50;;;24.49;76.23
23433;BME280;41331;45.412;10.992;2023-07-13T06:49:45;100712.19;;;24.43;76.98
23433;BME280;41331;45.412;10.992;2023-07-13T06:52:12;100725.72;;;24.41;76.93
23433;BME280;41331;45.412;10.992;2023-07-13T06:54:39;100738.06;;;24.40;76.92
23433;BME280;41331;45.412;10.992;2023-07-13T06:57:07;100748.47;;;24.29;77.01
23433;BME280;41331;45.412;10.992;2023-07-13T06:59:34;100748.44;;;24.36;77.45
23433;BME280;41331;45.412;10.992;2023-07-13T07:02:02;100754.81;;;24.29;79.86
23433;BME280;41331;45.412;10.992;2023-07-13T07:04:29;100743.66;;;24.37;77.58
23433;BME280;41331;45.412;10.992;2023-07-13T07:06:57;100739.25;;;24.39;76.34
23433;BME280;41331;45.412;10.992;2023-07-13T07:09:25;100747.22;;;24.37;75.23
23433;BME280;41331;45.412;10.992;2023-07-13T07:11:53;100757.88;;;24.46;76.16
23433;BME280;41331;45.412;10.992;2023-07-13T07:14:31;100766.25;;;24.42;74.32
23433;BME280;41331;45.412;10.992;2023-07-13T07:16:58;100761.72;;;24.56;74.77
23433;BME280;41331;45.412;10.992;2023-07-13T07:19:29;100753.63;;;24.65;74.43
23433;BME280;41331;45.412;10.992;2023-07-13T07:21:56;100746.72;;;24.80;73.91
23433;BME280;41331;45.412;10.992;2023-07-13T07:24:24;100746.13;;;24.92;73.59
23433;BME280;41331;45.412;10.992;2023-07-13T07:26:51;100755.31;;;24.89;72.63
23433;BME280;41331;45.412;10.992;2023-07-13T07:29:22;100750.47;;;24.93;73.71
23433;BME280;41331;45.412;10.992;2023-07-13T07:31:53;100739.66;;;24.99;73.10
23433;BME280;41331;45.412;10.992;2023-07-13T07:34:23;100723.25;;;25.08;72.52
23433;BME280;41331;45.412;10.992;2023-07-13T07:36:53;100738.69;;;25.13;72.56
23433;BME280;41331;45.412;10.992;2023-07-13T07:39:24;100756.41;;;25.26;72.10
23433;BME280;41331;45.412;10.992;2023-07-13T07:41:51;100770.81;;;25.21;71.64
23433;BME280;41331;45.412;10.992;2023-07-13T07:44:23;100756.28;;;25.33;72.58
23433;BME280;41331;45.412;10.992;2023-07-13T07:46:51;100763.25;;;25.45;72.14
23433;BME280;41331;45.412;10.992;2023-07-13T07:49:19;100770.63;;;25.58;70.53
23433;BME280;41331;45.412;10.992;2023-07-13T07:51:49;100768.06;;;25.68;70.22
23433;BME280;41331;45.412;10.992;2023-07-13T07:54:17;100770.19;;;25.60;69.79
23433;BME280;41331;45.412;10.992;2023-07-13T07:57:04;100771.88;;;25.54;70.62
23433;BME280;41331;45.412;10.992;2023-07-13T07:59:36;100768.78;;;25.48;68.87
23433;BME280;41331;45.412;10.992;2023-07-13T08:02:08;100764.59;;;25.37;67.05
23433;BME280;41331;45.412;10.992;2023-07-13T08:04:55;100767.34;;;25.13;68.30
23433;BME280;41331;45.412;10.992;2023-07-13T08:07:26;100783.81;;;25.00;71.35
23433;BME280;41331;45.412;10.992;2023-07-13T08:09:54;100779.53;;;24.92;71.06
23433;BME280;41331;45.412;10.992;2023-07-13T08:12:21;100774.41;;;24.91;71.85
23433;BME280;41331;45.412;10.992;2023-07-13T08:14:52;100752.06;;;24.94;72.71
23433;BME280;41331;45.412;10.992;2023-07-13T08:17:25;100738.41;;;25.03;70.68
23433;BME280;41331;45.412;10.992;2023-07-13T08:19:53;100729.59;;;25.09;72.24
23433;BME280;41331;45.412;10.992;2023-07-13T08:22:20;100724.19;;;25.25;70.40
23433;BME280;41331;45.412;10.992;2023-07-13T08:24:48;100723.81;;;25.23;70.70
23433;BME280;41331;45.412;10.992;2023-07-13T08:27:23;100717.13;;;25.20;70.08
23433;BME280;41331;45.412;10.992;2023-07-13T08:29:52;100707.84;;;25.27;70.56
23433;BME280;41331;45.412;10.992;2023-07-13T08:32:21;100712.50;;;25.34;71.25
23433;BME280;41331;45.412;10.992;2023-07-13T08:34:49;100723.09;;;25.19;73.22
23433;BME280;41331;45.412;10.992;2023-07-13T08:37:17;100720.78;;;25.14;73.34
23433;BME280;41331;45.412;10.992;2023-07-13T08:39:45;100715.38;;;24.99;75.98
23433;BME280;41331;45.412;10.992;2023-07-13T08:47:43;100748.09;;;24.95;76.67
23433;BME280;41331;45.412;10.992;2023-07-13T08:50:15;100758.50;;;24.88;78.88
23433;BME280;41331;45.412;10.992;2023-07-13T08:52:43;100756.97;;;24.83;78.84
23433;BME280;41331;45.412;10.992;2023-07-13T08:55:15;100748.94;;;24.89;79.51
23433;BME280;41331;45.412;10.992;2023-07-13T08:57:48;100756.19;;;24.83;78.51
23433;BME280;41331;45.412;10.992;2023-07-13T09:00:17;100769.13;;;24.96;79.00
23433;BME280;41331;45.412;10.992;2023-07-13T09:02:56;100780.22;;;25.00;78.09
23433;BME280;41331;45.412;10.992;2023-07-13T09:05:29;100771.22;;;24.89;80.46
23433;BME280;41331;45.412;10.992;2023-07-13T09:10:46;100769.19;;;24.93;78.95
23433;BME280;41331;45.412;10.992;2023-07-13T09:15:45;100750.19;;;24.84;80.68
23433;BME280;41331;45.412;10.992;2023-07-13T09:20:55;100752.59;;;24.86;80.96
23433;BME280;41331;45.412;10.992;2023-07-13T09:23:28;100746.25;;;24.85;81.66
23433;BME280;41331;45.412;10.992;2023-07-13T09:26:02;100740.44;;;24.99;79.61
23433;BME280;41331;45.412;10.992;2023-07-13T09:28:41;100736.47;;;25.00;77.66
23433;BME280;41331;45.412;10.992;2023-07-13T09:31:14;100743.91;;;25.11;78.73
23433;BME280;41331;45.412;10.992;2023-07-13T09:33:42;100759.72;;;25.17;76.87
23433;BME280;41331;45.412;10.992;2023-07-13T09:36:30;100762.06;;;25.19;76.38
23433;BME280;41331;45.412;10.992;2023-07-13T09:44:09;100738.38;;;25.34;79.93
23433;BME280;41331;45.412;10.992;2023-07-13T09:46:46;100741.88;;;25.38;77.33
23433;BME280;41331;45.412;10.992;2023-07-13T09:49:15;100746.00;;;25.53;76.92
23433;BME280;41331;45.412;10.992;2023-07-13T09:51:42;100748.41;;;25.78;75.78
23433;BME280;41331;45.412;10.992;2023-07-13T09:54:23;100751.41;;;26.11;76.16
23433;BME280;41331;45.412;10.992;2023-07-13T09:56:55;100748.34;;;26.45;74.68
23433;BME280;41331;45.412;10.992;2023-07-13T09:59:27;100761.25;;;26.59;73.62
23433;BME280;41331;45.412;10.992;2023-07-13T10:01:55;100752.69;;;27.22;69.98
23433;BME280;41331;45.412;10.992;2023-07-13T10:04:34;100746.50;;;27.80;63.51
23433;BME280;41331;45.412;10.992;2023-07-13T10:07:12;100741.47;;;28.04;61.98
23433;BME280;41331;45.412;10.992;2023-07-13T10:09:59;100743.34;;;28.65;61.21
23433;BME280;41331;45.412;10.992;2023-07-13T10:12:35;100739.06;;;29.28;58.62
23433;BME280;41331;45.412;10.992;2023-07-13T10:15:07;100734.75;;;29.49;56.90
23433;BME280;41331;45.412;10.992;2023-07-13T10:17:51;100744.31;;;29.38;58.03
